FFT1236 KMEM-KBNA
Flight info
| Callsign | FFT1236 |
|---|---|
| Flight time | 0h 36m |
| Altitude | 23000 |
| Route | GOETZ7 DIYAB CHSNE CHSNE3 |
| Aircraft | A20N/M-SDE2E3FGHIRWXY/LB1 |
Departure
| Time | 2026-05-04 21:03 |
|---|---|
| Airport | Memphis International Airport (KMEM) |
Arrival
| Time | 2026-05-04 21:39 |
|---|---|
| Airport | Nashville International Airport (KBNA) |
| Time | Latitude | Longitude | Altitude | Speed | Heading |
|---|---|---|---|---|---|
| 2026-05-04 20:55 | 35.04125 | -89.98231 | 312 ft | 0 kts | 327° |
| 2026-05-04 20:56 | 35.04121 | -89.98228 | 313 ft | 1 kts | 327° |
| 2026-05-04 20:56 | 35.04112 | -89.98221 | 311 ft | 2 kts | 327° |
| 2026-05-04 20:57 | 35.04096 | -89.98208 | 312 ft | 3 kts | 327° |
| 2026-05-04 20:57 | 35.04074 | -89.98192 | 312 ft | 4 kts | 329° |
| 2026-05-04 20:57 | 35.04054 | -89.98171 | 310 ft | 1 kts | 265° |
| 2026-05-04 20:57 | 35.03986 | -89.98270 | 309 ft | 9 kts | 186° |
| 2026-05-04 20:58 | 35.03924 | -89.98276 | 311 ft | 9 kts | 189° |
| 2026-05-04 20:58 | 35.03885 | -89.98333 | 310 ft | 11 kts | 264° |
| 2026-05-04 20:58 | 35.03886 | -89.98436 | 310 ft | 14 kts | 271° |
| 2026-05-04 20:58 | 35.03893 | -89.98565 | 307 ft | 13 kts | 303° |
| 2026-05-04 20:59 | 35.03988 | -89.98590 | 304 ft | 15 kts | 359° |
| 2026-05-04 20:59 | 35.04100 | -89.98593 | 303 ft | 17 kts | 359° |
| 2026-05-04 20:59 | 35.04228 | -89.98596 | 303 ft | 20 kts | 359° |
| 2026-05-04 20:59 | 35.04374 | -89.98600 | 301 ft | 22 kts | 359° |
| 2026-05-04 21:00 | 35.04522 | -89.98600 | 302 ft | 21 kts | 359° |
| 2026-05-04 21:00 | 35.04671 | -89.98604 | 302 ft | 22 kts | 359° |
| 2026-05-04 21:00 | 35.04829 | -89.98609 | 303 ft | 23 kts | 358° |
| 2026-05-04 21:00 | 35.04870 | -89.98610 | 304 ft | 0 kts | 359° |
| 2026-05-04 21:01 | 35.04873 | -89.98610 | 313 ft | 1 kts | 359° |
| 2026-05-04 21:01 | 35.04887 | -89.98610 | 293 ft | 3 kts | 359° |
| 2026-05-04 21:02 | 35.04933 | -89.98674 | 303 ft | 15 kts | 268° |
| 2026-05-04 21:02 | 35.04867 | -89.98745 | 303 ft | 13 kts | 175° |
| 2026-05-04 21:02 | 35.04526 | -89.98738 | 303 ft | 95 kts | 180° |
| 2026-05-04 21:02 | 35.03583 | -89.98709 | 483 ft | 163 kts | 181° |
| 2026-05-04 21:03 | 35.02358 | -89.98678 | 1103 ft | 191 kts | 180° |
| 2026-05-04 21:03 | 35.00909 | -89.98591 | 1603 ft | 227 kts | 181° |
| 2026-05-04 21:03 | 34.99294 | -89.98458 | 2089 ft | 236 kts | 175° |
| 2026-05-04 21:03 | 34.97694 | -89.97883 | 2576 ft | 246 kts | 160° |
| 2026-05-04 21:04 | 34.96152 | -89.96918 | 3103 ft | 251 kts | 155° |
| 2026-05-04 21:04 | 34.94654 | -89.95796 | 3718 ft | 255 kts | 147° |
| 2026-05-04 21:04 | 34.93454 | -89.94172 | 4323 ft | 265 kts | 125° |
| 2026-05-04 21:04 | 34.92892 | -89.91995 | 4954 ft | 276 kts | 102° |
| 2026-05-04 21:05 | 34.92733 | -89.89641 | 5580 ft | 281 kts | 97° |
| 2026-05-04 21:05 | 34.92647 | -89.87253 | 6203 ft | 284 kts | 97° |
| 2026-05-04 21:05 | 34.92680 | -89.84826 | 6809 ft | 291 kts | 85° |
| 2026-05-04 21:05 | 34.93308 | -89.82464 | 7416 ft | 298 kts | 66° |
| 2026-05-04 21:06 | 34.94319 | -89.80233 | 8037 ft | 303 kts | 61° |
| 2026-05-04 21:06 | 34.95403 | -89.78020 | 8668 ft | 306 kts | 60° |
| 2026-05-04 21:06 | 34.96500 | -89.75785 | 9312 ft | 309 kts | 60° |
| 2026-05-04 21:06 | 34.97622 | -89.73453 | 9966 ft | 331 kts | 60° |
| 2026-05-04 21:07 | 34.98818 | -89.70933 | 10579 ft | 355 kts | 61° |
| 2026-05-04 21:07 | 35.00084 | -89.68250 | 11205 ft | 376 kts | 60° |
| 2026-05-04 21:07 | 35.01419 | -89.65415 | 11830 ft | 394 kts | 60° |
| 2026-05-04 21:07 | 35.02807 | -89.62463 | 12476 ft | 408 kts | 60° |
| 2026-05-04 21:08 | 35.04235 | -89.59424 | 13128 ft | 415 kts | 60° |
| 2026-05-04 21:08 | 35.05676 | -89.56352 | 13775 ft | 420 kts | 60° |
| 2026-05-04 21:08 | 35.07133 | -89.53243 | 14364 ft | 423 kts | 60° |
| 2026-05-04 21:08 | 35.08601 | -89.50107 | 14969 ft | 427 kts | 60° |
| 2026-05-04 21:09 | 35.10076 | -89.46952 | 15582 ft | 430 kts | 60° |
| 2026-05-04 21:09 | 35.11564 | -89.43768 | 16212 ft | 433 kts | 59° |
| 2026-05-04 21:09 | 35.13073 | -89.40536 | 16751 ft | 441 kts | 59° |
| 2026-05-04 21:09 | 35.14600 | -89.37264 | 17278 ft | 445 kts | 59° |
| 2026-05-04 21:10 | 35.16136 | -89.33966 | 17772 ft | 448 kts | 59° |
| 2026-05-04 21:10 | 35.17679 | -89.30649 | 18294 ft | 451 kts | 59° |
| 2026-05-04 21:10 | 35.19232 | -89.27310 | 18760 ft | 453 kts | 58° |
| 2026-05-04 21:10 | 35.20794 | -89.23944 | 19232 ft | 456 kts | 59° |
| 2026-05-04 21:11 | 35.22073 | -89.20374 | 19711 ft | 462 kts | 69° |
| 2026-05-04 21:11 | 35.23080 | -89.16632 | 20204 ft | 466 kts | 71° |
| 2026-05-04 21:11 | 35.24046 | -89.12833 | 20702 ft | 469 kts | 71° |
| 2026-05-04 21:11 | 35.25184 | -89.09136 | 21213 ft | 474 kts | 65° |
| 2026-05-04 21:12 | 35.26514 | -89.05423 | 21739 ft | 479 kts | 64° |
| 2026-05-04 21:12 | 35.27880 | -89.01684 | 22262 ft | 483 kts | 63° |
| 2026-05-04 21:12 | 35.29256 | -88.97920 | 22743 ft | 486 kts | 63° |
| 2026-05-04 21:12 | 35.30635 | -88.94136 | 22926 ft | 488 kts | 63° |
| 2026-05-04 21:13 | 35.32016 | -88.90332 | 22939 ft | 490 kts | 63° |
| 2026-05-04 21:13 | 35.33400 | -88.86515 | 22936 ft | 491 kts | 63° |
| 2026-05-04 21:13 | 35.34782 | -88.82695 | 22934 ft | 491 kts | 63° |
| 2026-05-04 21:13 | 35.36165 | -88.78864 | 22933 ft | 492 kts | 64° |
| 2026-05-04 21:14 | 35.37548 | -88.75032 | 22935 ft | 492 kts | 64° |
| 2026-05-04 21:14 | 35.38928 | -88.71200 | 22938 ft | 492 kts | 64° |
| 2026-05-04 21:14 | 35.40308 | -88.67367 | 22939 ft | 492 kts | 64° |
| 2026-05-04 21:14 | 35.41688 | -88.63525 | 22939 ft | 492 kts | 64° |
| 2026-05-04 21:15 | 35.43065 | -88.59691 | 22936 ft | 492 kts | 64° |
| 2026-05-04 21:15 | 35.44441 | -88.55852 | 22937 ft | 492 kts | 64° |
| 2026-05-04 21:15 | 35.45817 | -88.52010 | 22937 ft | 492 kts | 64° |
| 2026-05-04 21:15 | 35.47191 | -88.48167 | 22937 ft | 492 kts | 64° |
| 2026-05-04 21:16 | 35.48563 | -88.44326 | 22936 ft | 492 kts | 64° |
| 2026-05-04 21:16 | 35.49937 | -88.40476 | 22938 ft | 493 kts | 64° |
| 2026-05-04 21:16 | 35.51311 | -88.36618 | 22933 ft | 493 kts | 64° |
| 2026-05-04 21:16 | 35.52683 | -88.32763 | 22930 ft | 493 kts | 64° |
| 2026-05-04 21:17 | 35.54055 | -88.28904 | 22933 ft | 493 kts | 64° |
| 2026-05-04 21:17 | 35.55425 | -88.25044 | 22930 ft | 493 kts | 64° |
| 2026-05-04 21:17 | 35.56794 | -88.21183 | 22864 ft | 493 kts | 64° |
| 2026-05-04 21:17 | 35.58157 | -88.17333 | 22516 ft | 491 kts | 64° |
| 2026-05-04 21:18 | 35.59514 | -88.13494 | 22118 ft | 490 kts | 64° |
| 2026-05-04 21:18 | 35.60869 | -88.09659 | 21741 ft | 488 kts | 64° |
| 2026-05-04 21:18 | 35.62218 | -88.05838 | 21356 ft | 486 kts | 65° |
| 2026-05-04 21:18 | 35.63560 | -88.02030 | 20968 ft | 484 kts | 65° |
| 2026-05-04 21:19 | 35.64876 | -87.98289 | 20602 ft | 481 kts | 65° |
| 2026-05-04 21:19 | 35.66176 | -87.94588 | 20226 ft | 464 kts | 65° |
| 2026-05-04 21:19 | 35.67432 | -87.91004 | 19846 ft | 448 kts | 65° |
| 2026-05-04 21:19 | 35.68644 | -87.87546 | 19485 ft | 434 kts | 65° |
| 2026-05-04 21:20 | 35.69822 | -87.84182 | 19131 ft | 421 kts | 65° |
| 2026-05-04 21:20 | 35.70965 | -87.80918 | 18769 ft | 410 kts | 65° |
| 2026-05-04 21:20 | 35.72078 | -87.77734 | 18419 ft | 401 kts | 65° |
| 2026-05-04 21:20 | 35.73174 | -87.74597 | 18006 ft | 398 kts | 66° |
| 2026-05-04 21:21 | 35.74264 | -87.71476 | 17491 ft | 396 kts | 66° |
| 2026-05-04 21:21 | 35.75347 | -87.68369 | 16967 ft | 394 kts | 66° |
| 2026-05-04 21:21 | 35.76422 | -87.65281 | 16450 ft | 391 kts | 66° |
| 2026-05-04 21:21 | 35.77488 | -87.62216 | 15952 ft | 388 kts | 66° |
| 2026-05-04 21:22 | 35.78543 | -87.59180 | 15455 ft | 384 kts | 66° |
| 2026-05-04 21:22 | 35.79589 | -87.56168 | 15089 ft | 381 kts | 66° |
| 2026-05-04 21:22 | 35.80627 | -87.53174 | 14992 ft | 380 kts | 66° |
| 2026-05-04 21:22 | 35.81661 | -87.50190 | 14875 ft | 374 kts | 67° |
| 2026-05-04 21:23 | 35.82674 | -87.47274 | 14445 ft | 367 kts | 66° |
| 2026-05-04 21:23 | 35.83683 | -87.44404 | 13972 ft | 363 kts | 66° |
| 2026-05-04 21:23 | 35.84346 | -87.42523 | 13647 ft | 360 kts | 66° |
| 2026-05-04 21:23 | 35.85336 | -87.39712 | 13124 ft | 356 kts | 66° |
| 2026-05-04 21:24 | 35.86316 | -87.36926 | 12611 ft | 352 kts | 66° |
| 2026-05-04 21:24 | 35.87286 | -87.34168 | 12100 ft | 349 kts | 66° |
| 2026-05-04 21:24 | 35.88245 | -87.31438 | 11598 ft | 346 kts | 67° |
| 2026-05-04 21:24 | 35.89196 | -87.28727 | 11110 ft | 343 kts | 67° |
| 2026-05-04 21:25 | 35.90457 | -87.25131 | 10456 ft | 339 kts | 67° |
| 2026-05-04 21:25 | 35.91074 | -87.23368 | 10188 ft | 336 kts | 67° |
| 2026-05-04 21:25 | 35.91988 | -87.20763 | 10019 ft | 325 kts | 68° |
| 2026-05-04 21:25 | 35.92874 | -87.18221 | 9998 ft | 322 kts | 67° |
| 2026-05-04 21:26 | 35.93761 | -87.15685 | 9994 ft | 322 kts | 67° |
| 2026-05-04 21:26 | 35.94647 | -87.13153 | 9984 ft | 321 kts | 68° |
| 2026-05-04 21:26 | 35.95531 | -87.10618 | 9983 ft | 321 kts | 68° |
| 2026-05-04 21:26 | 35.96415 | -87.08084 | 9988 ft | 321 kts | 68° |
| 2026-05-04 21:27 | 35.97296 | -87.05552 | 9984 ft | 321 kts | 67° |
| 2026-05-04 21:27 | 35.98178 | -87.03014 | 9980 ft | 321 kts | 68° |
| 2026-05-04 21:27 | 35.99059 | -87.00479 | 9973 ft | 321 kts | 68° |
| 2026-05-04 21:27 | 35.99939 | -86.97947 | 9971 ft | 321 kts | 67° |
| 2026-05-04 21:28 | 36.00818 | -86.95410 | 9966 ft | 321 kts | 68° |
| 2026-05-04 21:28 | 36.01699 | -86.92874 | 9974 ft | 321 kts | 68° |
| 2026-05-04 21:28 | 36.02568 | -86.90364 | 9886 ft | 312 kts | 68° |
| 2026-05-04 21:28 | 36.03417 | -86.87914 | 9465 ft | 310 kts | 68° |
| 2026-05-04 21:29 | 36.04250 | -86.85502 | 9071 ft | 307 kts | 68° |
| 2026-05-04 21:29 | 36.05192 | -86.83196 | 8892 ft | 296 kts | 54° |
| 2026-05-04 21:29 | 36.06696 | -86.81517 | 8468 ft | 293 kts | 25° |
| 2026-05-04 21:29 | 36.08574 | -86.80591 | 8081 ft | 287 kts | 15° |
| 2026-05-04 21:30 | 36.10432 | -86.79878 | 7935 ft | 271 kts | 13° |
| 2026-05-04 21:30 | 36.12195 | -86.79217 | 7538 ft | 262 kts | 14° |
| 2026-05-04 21:30 | 36.13928 | -86.78564 | 7047 ft | 259 kts | 14° |
| 2026-05-04 21:30 | 36.15646 | -86.77919 | 6573 ft | 257 kts | 14° |
| 2026-05-04 21:31 | 36.19051 | -86.76697 | 5554 ft | 254 kts | 14° |
| 2026-05-04 21:31 | 36.20750 | -86.76091 | 5070 ft | 253 kts | 14° |
| 2026-05-04 21:31 | 36.22441 | -86.75483 | 4566 ft | 252 kts | 14° |
| 2026-05-04 21:32 | 36.24117 | -86.74884 | 4135 ft | 248 kts | 14° |
| 2026-05-04 21:32 | 36.25733 | -86.74302 | 3962 ft | 234 kts | 14° |
| 2026-05-04 21:32 | 36.27261 | -86.73753 | 3954 ft | 226 kts | 13° |
| 2026-05-04 21:32 | 36.28766 | -86.73215 | 3970 ft | 224 kts | 14° |
| 2026-05-04 21:33 | 36.30259 | -86.72679 | 3974 ft | 223 kts | 14° |
| 2026-05-04 21:33 | 36.31730 | -86.72126 | 3962 ft | 217 kts | 19° |
| 2026-05-04 21:33 | 36.32896 | -86.71042 | 3868 ft | 212 kts | 56° |
| 2026-05-04 21:33 | 36.33371 | -86.69385 | 3539 ft | 203 kts | 94° |
| 2026-05-04 21:34 | 36.33139 | -86.67707 | 3164 ft | 195 kts | 118° |
| 2026-05-04 21:34 | 36.32299 | -86.66472 | 3014 ft | 182 kts | 154° |
| 2026-05-04 21:34 | 36.31188 | -86.65819 | 2988 ft | 177 kts | 164° |
| 2026-05-04 21:34 | 36.30028 | -86.65306 | 2990 ft | 176 kts | 166° |
| 2026-05-04 21:35 | 36.28863 | -86.64806 | 2994 ft | 178 kts | 166° |
| 2026-05-04 21:35 | 36.27706 | -86.64288 | 2993 ft | 177 kts | 166° |
| 2026-05-04 21:35 | 36.26554 | -86.63770 | 2988 ft | 176 kts | 166° |
| 2026-05-04 21:35 | 36.25354 | -86.63574 | 2904 ft | 173 kts | 182° |
| 2026-05-04 21:36 | 36.24175 | -86.63762 | 2793 ft | 170 kts | 195° |
| 2026-05-04 21:36 | 36.23049 | -86.64187 | 2486 ft | 170 kts | 199° |
| 2026-05-04 21:36 | 36.21906 | -86.64644 | 2101 ft | 172 kts | 200° |
| 2026-05-04 21:36 | 36.20807 | -86.65079 | 1971 ft | 159 kts | 199° |
| 2026-05-04 21:37 | 36.19761 | -86.65492 | 1977 ft | 157 kts | 201° |
| 2026-05-04 21:37 | 36.18740 | -86.65895 | 2004 ft | 153 kts | 200° |
| 2026-05-04 21:37 | 36.17743 | -86.66289 | 1979 ft | 144 kts | 200° |
| 2026-05-04 21:37 | 36.16829 | -86.66649 | 1814 ft | 134 kts | 200° |
| 2026-05-04 21:38 | 36.15948 | -86.66999 | 1478 ft | 132 kts | 201° |
| 2026-05-04 21:38 | 36.15063 | -86.67360 | 1107 ft | 136 kts | 202° |
| 2026-05-04 21:38 | 36.14165 | -86.67704 | 719 ft | 133 kts | 199° |
| 2026-05-04 21:38 | 36.13307 | -86.68045 | 579 ft | 121 kts | 200° |
| 2026-05-04 21:39 | 36.12711 | -86.68281 | 582 ft | 70 kts | 199° |
| 2026-05-04 21:39 | 36.12290 | -86.68429 | 588 ft | 37 kts | 175° |
| 2026-05-04 21:39 | 36.12180 | -86.68369 | 590 ft | 0 kts | 152° |
| 2026-05-04 21:41 | 36.12178 | -86.68368 | 590 ft | 1 kts | 152° |
| 2026-05-04 21:41 | 36.12161 | -86.68317 | 587 ft | 14 kts | 78° |
| 2026-05-04 21:42 | 36.12263 | -86.68250 | 580 ft | 19 kts | 17° |
| 2026-05-04 21:42 | 36.12389 | -86.68206 | 580 ft | 18 kts | 16° |
| 2026-05-04 21:42 | 36.12510 | -86.68162 | 577 ft | 19 kts | 15° |
| 2026-05-04 21:42 | 36.12645 | -86.68117 | 577 ft | 21 kts | 15° |
| 2026-05-04 21:43 | 36.12779 | -86.68062 | 583 ft | 20 kts | 18° |
| 2026-05-04 21:43 | 36.12944 | -86.68001 | 577 ft | 28 kts | 17° |
| 2026-05-04 21:43 | 36.13137 | -86.67925 | 579 ft | 30 kts | 17° |
| 2026-05-04 21:43 | 36.13332 | -86.67849 | 574 ft | 22 kts | 18° |
| 2026-05-04 21:44 | 36.13426 | -86.67811 | 575 ft | 14 kts | 18° |
| 2026-05-04 21:44 | 36.13522 | -86.67750 | 573 ft | 19 kts | 71° |
| 2026-05-04 21:44 | 36.13482 | -86.67556 | 569 ft | 27 kts | 107° |
| 2026-05-04 21:44 | 36.13425 | -86.67332 | 571 ft | 27 kts | 108° |
| 2026-05-04 21:45 | 36.13385 | -86.67176 | 574 ft | 10 kts | 110° |
| 2026-05-04 21:45 | 36.13349 | -86.67143 | 573 ft | 5 kts | 181° |
| 2026-05-04 21:45 | 36.13324 | -86.67154 | 575 ft | 3 kts | 206° |
| 2026-05-04 21:45 | 36.13309 | -86.67163 | 572 ft | 0 kts | 205° |